Time;durP1;ratioP1;P1;durP2;ratioP2;P2;SDS_P1;SDS_P2;PMS_P1;PMS_P2;Temp;Humidity;BMP_temperature;BMP_pressure;BME280_temperature;BME280_humidity;BME280_pressure;Samples;Min_cycle;Max_cycle;Signal;HPM_P1;HPM_P2
2021/09/28 00:00:26;;;;;;;17.60;15.35;;;20.00;87.00;;;;;;4996408;28;20037;-71
2021/09/28 00:02:52;;;;;;;15.75;14.10;;;20.00;86.80;;;;;;4996330;28;20489;-71
2021/09/28 00:05:18;;;;;;;17.00;14.45;;;19.90;87.00;;;;;;4996674;28;20088;-71
2021/09/28 00:07:44;;;;;;;17.42;13.70;;;20.00;87.10;;;;;;4996558;28;20023;-75
2021/09/28 00:10:10;;;;;;;15.43;12.70;;;19.90;86.90;;;;;;4996581;28;20041;-71
2021/09/28 00:12:36;;;;;;;18.65;12.88;;;19.90;86.80;;;;;;4996349;28;20042;-71
2021/09/28 00:15:04;;;;;;;15.90;12.15;;;19.90;86.80;;;;;;4996349;28;20402;-72
2021/09/28 00:17:29;;;;;;;15.65;12.32;;;19.90;86.70;;;;;;4995988;28;20041;-71
2021/09/28 00:19:55;;;;;;;22.40;12.65;;;19.90;86.60;;;;;;4995942;28;20030;-71
2021/09/28 00:22:20;;;;;;;12.07;9.90;;;19.90;87.10;;;;;;4996236;28;20049;-75
2021/09/28 00:24:46;;;;;;;13.77;10.52;;;19.90;86.50;;;;;;4995699;28;20026;-75
2021/09/28 00:27:12;;;;;;;14.15;11.13;;;19.80;86.50;;;;;;4995917;28;20047;-74
2021/09/28 00:29:37;;;;;;;19.98;12.27;;;19.80;86.50;;;;;;4995716;28;20035;-71
2021/09/28 00:32:03;;;;;;;13.85;11.48;;;19.80;86.40;;;;;;4995645;28;20058;-75
2021/09/28 00:34:29;;;;;;;20.15;12.95;;;19.80;86.40;;;;;;4995703;28;20069;-71
2021/09/28 00:36:55;;;;;;;14.45;12.10;;;19.80;86.30;;;;;;4995372;28;20062;-76
2021/09/28 00:39:21;;;;;;;17.13;11.88;;;19.80;86.30;;;;;;4995871;28;20034;-75
2021/09/28 00:41:46;;;;;;;17.67;11.77;;;19.80;86.40;;;;;;4995653;28;20041;-71
2021/09/28 00:44:12;;;;;;;17.08;13.48;;;19.80;86.30;;;;;;4995558;28;20039;-71
2021/09/28 00:46:38;;;;;;;16.98;13.35;;;19.70;86.00;;;;;;4995213;28;20467;-71
2021/09/28 00:49:03;;;;;;;18.85;12.73;;;19.70;86.20;;;;;;4995577;28;20039;-74
2021/09/28 00:51:29;;;;;;;16.95;11.65;;;19.60;86.10;;;;;;4995246;28;20057;-72
2021/09/28 00:53:55;;;;;;;18.48;12.32;;;19.70;86.10;;;;;;4995274;28;20065;-74
2021/09/28 00:56:22;;;;;;;18.58;11.48;;;19.70;86.50;;;;;;4995381;28;20388;-75
2021/09/28 00:58:48;;;;;;;16.33;12.18;;;19.70;85.90;;;;;;4993078;28;20081;-71
2021/09/28 01:01:16;;;;;;;18.80;10.75;;;19.60;85.90;;;;;;4992263;28;20450;-71
2021/09/28 01:03:42;;;;;;;17.67;9.93;;;19.60;85.90;;;;;;4992416;28;20023;-71
2021/09/28 01:06:08;;;;;;;10.82;9.55;;;19.60;86.10;;;;;;4995073;28;20487;-71
2021/09/28 01:08:34;;;;;;;21.08;10.50;;;19.60;86.10;;;;;;4994988;28;20030;-71
2021/09/28 01:11:03;;;;;;;14.88;10.52;;;19.50;86.20;;;;;;4995239;28;20038;-73
2021/09/28 01:13:29;;;;;;;13.30;10.55;;;19.50;86.30;;;;;;4994354;28;20038;-75
2021/09/28 01:16:00;;;;;;;13.25;10.15;;;19.50;86.20;;;;;;4994747;28;20084;-71
2021/09/28 01:18:27;;;;;;;18.33;10.83;;;19.50;85.90;;;;;;4977550;28;20048;-71
2021/09/28 01:20:54;;;;;;;16.45;11.15;;;19.50;86.00;;;;;;4994727;28;20633;-71
2021/09/28 01:23:20;;;;;;;15.10;10.77;;;19.40;86.00;;;;;;4994558;28;20050;-71
2021/09/28 01:25:45;;;;;;;13.95;10.00;;;19.40;86.10;;;;;;4994837;28;20042;-71
2021/09/28 01:28:11;;;;;;;12.30;9.15;;;19.40;86.00;;;;;;4994354;28;20035;-71
2021/09/28 01:30:37;;;;;;;13.25;9.48;;;19.50;85.90;;;;;;4994611;28;20100;-73
2021/09/28 01:33:02;;;;;;;12.02;8.60;;;19.50;85.70;;;;;;4994263;28;20042;-71
2021/09/28 01:35:29;;;;;;;11.32;8.13;;;19.50;85.60;;;;;;4994316;28;20066;-72
2021/09/28 01:37:55;;;;;;;11.35;7.50;;;19.40;85.50;;;;;;4994618;28;20038;-75
2021/09/28 01:40:21;;;;;;;11.95;8.07;;;19.40;85.40;;;;;;4994422;28;20109;-71
2021/09/28 01:42:47;;;;;;;9.82;7.68;;;19.40;85.40;;;;;;4994144;28;20110;-71
2021/09/28 01:45:12;;;;;;;9.93;8.23;;;19.40;85.40;;;;;;4994145;28;20042;-74
2021/09/28 01:47:39;;;;;;;11.95;9.30;;;19.40;85.40;;;;;;4994455;28;20061;-75
2021/09/28 01:50:05;;;;;;;14.65;9.68;;;19.40;85.40;;;;;;4993902;28;20096;-71
2021/09/28 01:52:34;;;;;;;12.80;9.27;;;19.30;85.40;;;;;;4994282;28;20038;-71
2021/09/28 01:55:00;;;;;;;14.57;9.57;;;19.30;85.40;;;;;;4993994;28;20046;-71
2021/09/28 01:57:25;;;;;;;12.40;9.18;;;19.30;85.30;;;;;;4994073;28;20030;-74
2021/09/28 01:59:51;;;;;;;18.17;9.50;;;19.30;85.20;;;;;;4993523;28;20044;-71
2021/09/28 02:02:17;;;;;;;11.90;10.15;;;19.20;85.10;;;;;;4994009;28;20041;-71
2021/09/28 02:04:43;;;;;;;12.82;9.75;;;19.20;85.30;;;;;;4994079;28;20045;-71
2021/09/28 02:07:08;;;;;;;21.25;10.80;;;19.20;85.30;;;;;;4994151;28;20030;-71
2021/09/28 02:09:34;;;;;;;12.90;10.88;;;19.20;85.20;;;;;;4993754;28;20030;-71
2021/09/28 02:12:00;;;;;;;12.43;10.30;;;19.20;85.30;;;;;;4993948;28;20046;-71
2021/09/28 02:14:28;;;;;;;14.65;11.05;;;19.20;85.30;;;;;;4994168;28;20446;-71
2021/09/28 02:16:55;;;;;;;16.73;11.98;;;19.20;85.40;;;;;;4993805;28;20037;-71
2021/09/28 02:19:21;;;;;;;13.82;11.85;;;19.20;85.40;;;;;;4993544;28;20034;-72
2021/09/28 02:21:47;;;;;;;19.02;11.73;;;19.20;85.40;;;;;;4993283;28;20089;-71
2021/09/28 02:24:13;;;;;;;16.73;12.32;;;19.20;85.40;;;;;;4993893;28;20085;-75
2021/09/28 02:26:39;;;;;;;12.85;11.30;;;19.20;85.40;;;;;;4993937;28;20550;-71
2021/09/28 02:29:05;;;;;;;16.00;11.38;;;19.20;85.40;;;;;;4976983;28;20376;-71
2021/09/28 02:31:31;;;;;;;15.48;12.40;;;19.20;85.40;;;;;;4993334;28;20065;-71
2021/09/28 02:33:56;;;;;;;16.25;12.05;;;19.10;85.40;;;;;;4993673;28;20105;-74
2021/09/28 02:36:22;;;;;;;18.50;13.25;;;19.10;85.30;;;;;;4993758;28;20041;-71
2021/09/28 02:38:48;;;;;;;15.05;12.45;;;19.10;85.30;;;;;;4993700;28;20110;-72
2021/09/28 02:41:13;;;;;;;18.00;12.07;;;19.10;85.40;;;;;;4993413;28;20043;-70
2021/09/28 02:43:39;;;;;;;16.40;11.85;;;19.10;85.60;;;;;;4993809;28;20026;-71
2021/09/28 02:46:05;;;;;;;18.08;12.02;;;19.00;85.40;;;;;;4993467;28;20121;-71
2021/09/28 02:48:30;;;;;;;16.20;12.63;;;19.00;85.50;;;;;;4993673;28;20042;-75
2021/09/28 02:50:57;;;;;;;17.98;11.95;;;19.00;85.50;;;;;;4993659;28;20030;-71
2021/09/28 02:53:23;;;;;;;15.07;11.60;;;19.00;85.60;;;;;;4993616;28;20092;-71
2021/09/28 02:55:48;;;;;;;15.00;10.88;;;19.00;85.70;;;;;;4993311;28;20109;-71
2021/09/28 02:58:14;;;;;;;13.23;11.15;;;19.00;85.70;;;;;;4993518;28;20475;-71
2021/09/28 03:00:40;;;;;;;14.27;11.10;;;19.00;85.60;;;;;;4993579;28;20041;-71
2021/09/28 03:03:05;;;;;;;15.68;11.48;;;19.00;85.50;;;;;;4993437;28;20046;-71
2021/09/28 03:05:32;;;;;;;14.05;10.52;;;18.90;85.40;;;;;;4993643;28;20093;-75
2021/09/28 03:07:57;;;;;;;14.35;10.52;;;18.90;85.40;;;;;;4993373;28;20070;-72
2021/09/28 03:10:23;;;;;;;14.55;10.57;;;18.90;85.50;;;;;;4993432;28;20058;-71
2021/09/28 03:12:49;;;;;;;12.88;9.90;;;18.90;85.50;;;;;;4993422;28;20046;-71
2021/09/28 03:15:15;;;;;;;16.65;9.88;;;18.90;85.50;;;;;;4993421;28;20038;-74
2021/09/28 03:17:40;;;;;;;14.30;9.73;;;18.90;85.40;;;;;;4993546;28;20062;-70
2021/09/28 03:20:08;;;;;;;12.80;9.40;;;19.00;85.90;;;;;;4993213;28;20393;-71
2021/09/28 03:22:34;;;;;;;15.07;9.50;;;18.90;85.30;;;;;;4993392;28;20069;-75
2021/09/28 03:25:00;;;;;;;16.15;10.75;;;18.90;85.40;;;;;;4993173;28;20031;-71
2021/09/28 03:27:25;;;;;;;12.25;9.52;;;18.90;85.40;;;;;;4993235;28;20076;-75
2021/09/28 03:29:51;;;;;;;12.77;10.18;;;18.80;85.30;;;;;;4993133;28;20372;-71
2021/09/28 03:32:17;;;;;;;16.92;10.82;;;18.80;85.30;;;;;;4993050;28;20380;-71
2021/09/28 03:34:42;;;;;;;13.40;9.93;;;18.80;85.20;;;;;;4996884;28;20043;-71
2021/09/28 03:37:08;;;;;;;14.68;9.70;;;18.80;85.30;;;;;;4996777;28;20031;-75
2021/09/28 03:39:33;;;;;;;14.07;10.13;;;18.80;85.40;;;;;;4996783;28;20109;-71
2021/09/28 03:42:00;;;;;;;15.55;10.27;;;18.80;85.20;;;;;;4996683;28;20423;-71
2021/09/28 03:44:25;;;;;;;13.45;9.23;;;18.80;84.90;;;;;;4996595;28;20066;-71
2021/09/28 03:46:51;;;;;;;14.60;9.80;;;18.80;84.80;;;;;;4996722;28;20116;-75
2021/09/28 03:49:17;;;;;;;10.00;8.40;;;18.80;84.60;;;;;;4996476;28;20049;-71
2021/09/28 03:51:42;;;;;;;9.45;8.40;;;18.70;84.50;;;;;;4996517;28;20038;-71
2021/09/28 03:54:08;;;;;;;10.65;8.15;;;18.70;84.20;;;;;;4996349;28;20045;-70
2021/09/28 03:56:34;;;;;;;6.80;6.15;;;18.70;84.10;;;;;;4996429;28;20041;-71
2021/09/28 03:58:59;;;;;;;7.80;6.22;;;18.70;84.00;;;;;;4996343;28;20041;-71
2021/09/28 04:01:25;;;;;;;11.95;6.68;;;18.70;83.90;;;;;;4996432;28;20030;-70
2021/09/28 04:03:51;;;;;;;8.93;6.55;;;18.60;83.80;;;;;;4996207;28;20039;-75
2021/09/28 04:06:16;;;;;;;8.32;6.43;;;18.60;83.70;;;;;;4996102;28;20081;-71
2021/09/28 04:08:42;;;;;;;8.13;6.70;;;18.50;84.30;;;;;;4996243;28;20030;-71
2021/09/28 04:11:08;;;;;;;6.97;6.38;;;18.50;83.70;;;;;;4996131;28;20427;-70
2021/09/28 04:13:33;;;;;;;9.80;6.50;;;18.50;84.20;;;;;;4996233;28;20030;-71
2021/09/28 04:16:04;;;;;;;9.45;5.75;;;18.50;83.50;;;;;;4996129;28;20114;-74
2021/09/28 04:18:30;;;;;;;6.00;5.40;;;18.40;83.50;;;;;;4995941;28;20483;-70
2021/09/28 04:20:57;;;;;;;7.65;5.70;;;18.40;83.60;;;;;;4996076;28;20110;-72
2021/09/28 04:23:23;;;;;;;6.07;5.53;;;18.40;83.40;;;;;;4996048;28;20121;-71
2021/09/28 04:25:49;;;;;;;24.23;5.88;;;18.40;83.40;;;;;;4996319;28;20630;-69
2021/09/28 04:28:15;;;;;;;6.10;5.60;;;18.40;83.20;;;;;;4995687;28;20399;-71
2021/09/28 04:30:41;;;;;;;13.50;5.93;;;18.40;83.40;;;;;;4995854;28;20046;-71
2021/09/28 04:33:08;;;;;;;11.32;5.97;;;18.30;83.40;;;;;;4995703;28;20046;-71
2021/09/28 04:35:34;;;;;;;31.65;6.22;;;18.30;83.50;;;;;;4995838;28;20030;-71
2021/09/28 04:37:59;;;;;;;12.35;5.80;;;18.30;83.60;;;;;;4995581;28;20433;-71
2021/09/28 04:40:25;;;;;;;20.85;5.80;;;18.20;83.70;;;;;;4995716;28;20030;-75
2021/09/28 04:42:51;;;;;;;27.75;5.53;;;18.20;83.70;;;;;;4995424;28;20045;-71
2021/09/28 04:45:17;;;;;;;23.15;5.80;;;18.20;83.70;;;;;;4995429;28;20035;-71
2021/09/28 04:47:43;;;;;;;12.35;5.70;;;18.20;83.90;;;;;;4978084;28;20113;-71
2021/09/28 04:50:10;;;;;;;6.13;5.47;;;18.20;83.80;;;;;;4995225;28;20118;-75
2021/09/28 04:52:38;;;;;;;9.10;5.57;;;18.10;83.70;;;;;;4995340;28;20046;-74
2021/09/28 04:55:07;;;;;;;12.15;6.28;;;18.10;83.60;;;;;;4995541;28;20038;-72
2021/09/28 04:57:33;;;;;;;8.77;6.22;;;18.10;83.60;;;;;;4995348;28;20113;-71
2021/09/28 04:59:59;;;;;;;9.13;5.20;;;18.10;83.70;;;;;;4995165;28;20069;-73
2021/09/28 05:02:25;;;;;;;6.95;6.30;;;18.00;83.60;;;;;;4995146;28;20042;-71
2021/09/28 05:04:51;;;;;;;8.18;6.32;;;18.00;83.70;;;;;;4995277;28;20035;-71
2021/09/28 05:07:16;;;;;;;6.75;6.10;;;18.00;83.60;;;;;;4995269;28;20110;-71
2021/09/28 05:09:43;;;;;;;7.18;6.47;;;17.90;83.70;;;;;;4977386;28;20041;-70
2021/09/28 05:12:09;;;;;;;9.45;5.68;;;17.90;83.90;;;;;;4995047;28;20053;-71
2021/09/28 05:14:35;;;;;;;7.50;6.10;;;18.00;84.00;;;;;;4995477;28;20390;-71
2021/09/28 05:17:01;;;;;;;9.45;5.68;;;17.90;84.00;;;;;;4995172;28;20038;-71
2021/09/28 05:19:27;;;;;;;9.20;6.07;;;17.90;84.10;;;;;;4994816;28;20486;-71
2021/09/28 05:21:53;;;;;;;5.90;5.30;;;17.90;84.30;;;;;;4996756;28;20096;-71
2021/09/28 05:24:18;;;;;;;7.78;5.90;;;17.90;84.50;;;;;;4995029;28;20121;-71
2021/09/28 05:26:46;;;;;;;6.85;5.30;;;17.90;84.70;;;;;;4994948;28;20034;-71
2021/09/28 05:29:12;;;;;;;6.97;6.28;;;17.90;84.50;;;;;;4994738;28;20120;-71
2021/09/28 05:31:38;;;;;;;6.32;5.30;;;17.90;84.50;;;;;;4994494;28;20074;-75
2021/09/28 05:34:03;;;;;;;7.63;5.63;;;17.90;84.60;;;;;;4994354;28;20084;-70
2021/09/28 05:36:29;;;;;;;9.32;5.65;;;17.90;84.60;;;;;;4994567;28;20434;-71
2021/09/28 05:38:54;;;;;;;14.23;6.38;;;17.90;84.80;;;;;;4994659;28;20034;-71
2021/09/28 05:41:20;;;;;;;9.82;5.95;;;17.90;84.80;;;;;;4994566;28;20113;-71
2021/09/28 05:43:46;;;;;;;8.75;7.38;;;17.90;84.80;;;;;;4994475;28;20036;-71
2021/09/28 05:46:12;;;;;;;8.43;6.88;;;17.90;85.00;;;;;;4994475;28;20057;-70
2021/09/28 05:48:37;;;;;;;9.18;7.03;;;17.90;85.20;;;;;;4994440;28;20030;-71
2021/09/28 05:51:19;;;;;;;10.02;7.55;;;17.90;85.30;;;;;;4977002;28;20467;-72
2021/09/28 05:53:45;;;;;;;9.95;8.20;;;17.90;85.50;;;;;;4994145;28;20038;-71
2021/09/28 05:56:15;;;;;;;9.38;8.23;;;17.90;85.70;;;;;;4993692;28;20037;-75
2021/09/28 05:58:41;;;;;;;12.48;7.93;;;18.00;85.90;;;;;;4994130;28;20074;-70
2021/09/28 06:01:07;;;;;;;9.65;8.00;;;18.00;86.10;;;;;;4993240;28;20036;-70
2021/09/28 06:03:32;;;;;;;12.38;8.07;;;18.00;86.30;;;;;;4992775;28;20117;-71
2021/09/28 06:05:59;;;;;;;11.90;7.50;;;18.00;86.50;;;;;;4993532;28;20445;-70
2021/09/28 06:08:25;;;;;;;17.20;8.93;;;18.00;86.70;;;;;;4992028;28;20203;-70
2021/09/28 06:10:51;;;;;;;12.98;8.30;;;18.00;86.80;;;;;;4992637;28;20104;-70
2021/09/28 06:13:16;;;;;;;13.82;8.70;;;18.10;87.20;;;;;;4991776;28;20407;-70
2021/09/28 06:15:42;;;;;;;11.90;8.57;;;18.10;87.10;;;;;;4992358;28;20066;-70
2021/09/28 06:18:08;;;;;;;9.77;8.32;;;18.20;87.10;;;;;;4993366;28;20426;-70
2021/09/28 06:20:33;;;;;;;15.90;8.60;;;18.20;87.30;;;;;;4993268;28;20039;-70
2021/09/28 06:22:59;;;;;;;17.60;8.00;;;18.20;87.00;;;;;;4993030;28;20109;-70
2021/09/28 06:25:24;;;;;;;16.00;9.15;;;18.30;86.90;;;;;;4993337;28;20505;-70
2021/09/28 06:27:50;;;;;;;11.27;8.93;;;18.40;87.10;;;;;;4990516;28;20031;-70
2021/09/28 06:30:16;;;;;;;12.65;8.10;;;18.30;87.20;;;;;;4991584;28;20046;-71
2021/09/28 06:32:42;;;;;;;14.35;8.93;;;18.40;87.30;;;;;;4992432;28;20078;-70
2021/09/28 06:35:08;;;;;;;12.13;8.43;;;18.40;87.40;;;;;;4993509;28;20066;-70
2021/09/28 06:37:34;;;;;;;14.27;9.07;;;18.40;87.70;;;;;;4993409;28;20040;-71
2021/09/28 06:40:00;;;;;;;10.85;8.55;;;18.50;87.60;;;;;;4993623;28;20098;-68
2021/09/28 06:42:25;;;;;;;10.65;8.10;;;18.50;87.50;;;;;;4993600;28;20070;-67
2021/09/28 06:44:51;;;;;;;14.05;8.32;;;18.60;87.30;;;;;;4993480;28;20157;-67
2021/09/28 06:47:17;;;;;;;13.82;7.80;;;18.70;87.30;;;;;;4993644;28;20066;-67
2021/09/28 06:49:45;;;;;;;11.38;8.52;;;18.60;87.20;;;;;;4993535;28;20035;-67
2021/09/28 06:52:11;;;;;;;10.88;9.18;;;18.80;87.20;;;;;;4993527;28;20141;-67
2021/09/28 06:54:37;;;;;;;9.13;7.80;;;18.80;87.00;;;;;;4991704;28;20026;-67
2021/09/28 06:57:03;;;;;;;13.63;7.60;;;18.80;87.10;;;;;;4993035;28;20046;-67
2021/09/28 06:59:29;;;;;;;15.07;8.10;;;18.90;86.90;;;;;;4993087;28;20034;-67
2021/09/28 07:01:55;;;;;;;13.43;8.18;;;18.90;87.00;;;;;;4993298;28;20065;-68
2021/09/28 07:04:21;;;;;;;13.35;8.27;;;19.00;86.90;;;;;;4993127;28;20044;-68
2021/09/28 07:06:46;;;;;;;12.98;8.05;;;19.10;86.90;;;;;;4993486;28;20395;-67
2021/09/28 07:09:12;;;;;;;11.45;7.88;;;19.10;86.80;;;;;;4996901;28;20034;-67
2021/09/28 07:11:38;;;;;;;10.43;7.55;;;19.20;86.30;;;;;;4996690;28;20125;-68
2021/09/28 07:14:03;;;;;;;10.15;7.68;;;19.20;86.20;;;;;;4996189;28;20061;-67
2021/09/28 07:16:29;;;;;;;9.70;6.68;;;19.20;86.10;;;;;;4997164;28;20364;-68
2021/09/28 07:18:55;;;;;;;10.45;7.57;;;19.30;85.90;;;;;;4996957;28;20442;-68
2021/09/28 07:21:21;;;;;;;8.80;7.72;;;19.30;86.50;;;;;;4997017;28;20035;-68
2021/09/28 07:23:47;;;;;;;15.93;7.10;;;19.30;86.60;;;;;;4997363;28;20486;-67
2021/09/28 07:26:12;;;;;;;13.10;8.15;;;19.40;86.40;;;;;;4997025;28;20038;-68
2021/09/28 07:28:39;;;;;;;16.77;8.10;;;19.40;86.10;;;;;;4997031;28;20045;-68
2021/09/28 07:31:06;;;;;;;12.57;7.88;;;19.50;86.10;;;;;;4997003;28;20115;-68
2021/09/28 07:33:33;;;;;;;10.70;7.55;;;19.50;86.00;;;;;;4996811;28;20073;-67
2021/09/28 07:36:00;;;;;;;20.00;7.47;;;19.50;85.80;;;;;;4995543;28;20105;-68
2021/09/28 07:38:26;;;;;;;16.20;6.85;;;19.60;85.70;;;;;;4995331;28;20034;-67
2021/09/28 07:40:51;;;;;;;11.20;7.30;;;19.70;85.40;;;;;;4995518;28;20077;-69
2021/09/28 07:43:18;;;;;;;16.83;7.75;;;19.70;85.10;;;;;;4996416;28;20467;-68
2021/09/28 07:45:44;;;;;;;11.27;7.20;;;19.80;84.80;;;;;;4996839;28;20485;-68
2021/09/28 07:48:10;;;;;;;11.00;7.20;;;19.80;84.70;;;;;;4996649;28;20161;-68
2021/09/28 07:50:36;;;;;;;14.75;7.60;;;19.90;84.60;;;;;;4996623;28;20034;-68
2021/09/28 07:53:05;;;;;;;16.95;7.80;;;20.00;85.00;;;;;;4996672;28;20082;-68
2021/09/28 07:55:31;;;;;;;11.30;6.78;;;20.00;84.70;;;;;;4996658;28;20018;-68
2021/09/28 07:57:57;;;;;;;13.25;6.28;;;20.10;84.40;;;;;;4996583;28;20038;-71
2021/09/28 08:00:22;;;;;;;8.20;6.60;;;20.10;83.90;;;;;;4996442;28;20034;-69
2021/09/28 08:02:48;;;;;;;15.27;7.13;;;20.20;83.50;;;;;;4996170;28;20064;-67
2021/09/28 08:05:14;;;;;;;10.63;7.07;;;20.20;83.40;;;;;;4996338;28;20034;-68
2021/09/28 08:07:40;;;;;;;10.23;6.00;;;20.30;83.30;;;;;;4996283;28;20114;-68
2021/09/28 08:10:10;;;;;;;9.85;6.18;;;20.40;83.10;;;;;;4996246;28;20038;-68
2021/09/28 08:12:37;;;;;;;13.90;6.18;;;20.40;82.90;;;;;;4996190;28;20104;-68
2021/09/28 08:15:05;;;;;;;10.07;5.65;;;20.50;82.60;;;;;;4995876;28;20045;-68
2021/09/28 08:17:31;;;;;;;9.70;5.40;;;20.50;82.30;;;;;;4995729;28;20089;-68
2021/09/28 08:19:57;;;;;;;8.48;5.60;;;20.60;82.00;;;;;;4995375;28;20034;-75
2021/09/28 08:22:22;;;;;;;9.57;6.10;;;20.70;81.90;;;;;;4995905;28;20442;-75
2021/09/28 08:24:52;;;;;;;8.40;5.72;;;20.70;81.90;;;;;;4995984;28;20069;-68
2021/09/28 08:30:05;;;;;;;11.88;5.80;;;20.90;81.60;;;;;;4994774;28;20065;-68
2021/09/28 08:32:31;;;;;;;9.57;5.32;;;21.00;81.20;;;;;;4993899;28;20045;-68
2021/09/28 08:34:58;;;;;;;9.20;6.07;;;21.00;81.30;;;;;;4995231;28;20026;-67
2021/09/28 08:37:26;;;;;;;9.32;5.50;;;21.10;81.20;;;;;;4995046;28;20026;-68
2021/09/28 08:39:53;;;;;;;6.30;4.90;;;21.20;84.40;;;;;;4995272;28;20030;-71
2021/09/28 08:42:19;;;;;;;8.85;4.95;;;21.30;82.90;;;;;;4995015;28;20041;-69
2021/09/28 08:44:45;;;;;;;7.35;4.95;;;21.30;82.10;;;;;;4994934;28;20030;-70
2021/09/28 08:47:10;;;;;;;9.25;5.20;;;21.30;81.60;;;;;;4995129;28;20034;-71
2021/09/28 08:49:36;;;;;;;6.82;5.07;;;21.40;81.40;;;;;;4995350;28;20035;-71
2021/09/28 08:52:04;;;;;;;9.05;5.30;;;21.50;80.50;;;;;;4994607;28;20049;-71
2021/09/28 08:54:30;;;;;;;7.82;5.70;;;;;;;;;;4995161;28;20054;-71
2021/09/28 08:56:57;;;;;;;8.15;5.32;;;;;;;;;;4995324;28;20402;-71
2021/09/28 08:59:23;;;;;;;7.38;4.55;;;;;;;;;;4994890;28;20058;-71
2021/09/28 09:01:53;;;;;;;11.13;5.30;;;;;;;;;;4995145;28;20104;-71
2021/09/28 09:04:20;;;;;;;9.27;4.60;;;;;;;;;;4993870;28;20391;-72
2021/09/28 09:06:48;;;;;;;8.55;4.93;;;21.40;78.80;;;;;;4993432;28;20497;-71
2021/09/28 09:09:15;;;;;;;10.48;5.75;;;21.80;77.00;;;;;;4994349;28;20034;-71
2021/09/28 09:11:42;;;;;;;7.97;4.97;;;;;;;;;;4994124;28;20043;-72
2021/09/28 09:14:12;;;;;;;8.43;5.18;;;;;;;;;;4994661;28;20031;-73
2021/09/28 09:16:38;;;;;;;9.52;4.93;;;;;;;;;;4993413;28;20073;-71
2021/09/28 09:19:32;;;;;;;8.32;4.65;;;;;;;;;;4993544;28;20035;-71
2021/09/28 09:22:02;;;;;;;11.48;5.40;;;;;;;;;;4971971;28;20035;-72
2021/09/28 09:24:43;;;;;;;8.20;4.80;;;;;;;;;;4974744;28;20034;-71
2021/09/28 09:27:29;;;;;;;6.35;4.60;;;;;;;;;;4975229;28;20034;-74
2021/09/28 09:30:11;;;;;;;6.28;4.85;;;;;;;;;;4973662;28;20046;-71
2021/09/28 09:32:49;;;;;;;10.65;5.00;;;;;;;;;;4974484;28;20496;-71
2021/09/28 09:35:34;;;;;;;7.80;4.97;;;;;;;;;;4974757;28;20418;-72
2021/09/28 09:38:11;;;;;;;10.48;4.82;;;;;;;;;;4974790;28;20432;-71
2021/09/28 09:40:39;;;;;;;13.35;4.57;;;;;;;;;;4974803;28;20043;-71
2021/09/28 09:43:05;;;;;;;9.55;5.18;;;;;;;;;;4974460;28;20056;-72
2021/09/28 09:45:31;;;;;;;11.50;5.30;;;;;;;;;;4974607;28;20039;-71
2021/09/28 09:47:58;;;;;;;9.13;4.70;;;;;;;;;;4974327;28;20026;-71
2021/09/28 09:50:24;;;;;;;9.20;4.50;;;;;;;;;;4974814;28;20411;-71
2021/09/28 09:53:05;;;;;;;5.22;4.32;;;;;;;;;;4974668;28;20476;-72
2021/09/28 09:55:32;;;;;;;5.65;4.85;;;;;;;;;;4974210;28;20051;-71
2021/09/28 09:57:59;;;;;;;5.85;4.50;;;;;;;;;;4974122;28;20057;-72
2021/09/28 10:00:25;;;;;;;8.52;4.95;;;;;;;;;;4974257;28;20037;-72
2021/09/28 10:02:51;;;;;;;11.80;4.60;;;;;;;;;;4974691;28;20550;-71
2021/09/28 10:05:18;;;;;;;7.15;4.38;;;21.80;76.70;;;;;;4974710;28;20434;-70
2021/09/28 10:07:48;;;;;;;7.22;4.50;;;23.20;71.90;;;;;;4974549;28;20049;-72
2021/09/28 10:10:22;;;;;;;6.65;4.82;;;23.30;71.70;;;;;;4974276;28;20085;-70
2021/09/28 10:12:47;;;;;;;6.68;4.30;;;23.30;71.30;;;;;;4974051;28;20038;-70
2021/09/28 10:15:14;;;;;;;7.07;4.47;;;;;;;;;;4957225;28;20154;-71
2021/09/28 10:17:43;;;;;;;6.35;4.53;;;;;;;;;;4974588;28;20488;-69
2021/09/28 10:20:29;;;;;;;9.68;4.22;;;;;;;;;;4974430;28;20027;-73
2021/09/28 10:23:15;;;;;;;8.02;4.78;;;;;;;;;;4973515;28;20081;-70
2021/09/28 10:25:44;;;;;;;11.65;4.95;;;;;;;;;;4973842;28;20046;-70
2021/09/28 10:28:10;;;;;;;9.40;4.47;;;;;;;;;;4974434;28;20474;-70
2021/09/28 10:30:38;;;;;;;8.20;4.80;;;;;;;;;;4974090;28;20042;-71
2021/09/28 10:33:23;;;;;;;8.15;4.88;;;;;;;;;;4973972;28;20047;-70
2021/09/28 10:35:58;;;;;;;5.22;3.95;;;;;;;;;;4974031;28;20459;-70
2021/09/28 10:38:39;;;;;;;7.53;4.35;;;;;;;;;;4974130;28;20035;-70
2021/09/28 10:41:05;;;;;;;8.00;4.30;;;;;;;;;;4974108;28;20046;-70
2021/09/28 10:43:31;;;;;;;8.30;4.30;;;;;;;;;;4973991;28;20089;-70
2021/09/28 10:46:00;;;;;;;8.45;4.57;;;;;;;;;;4974175;28;20035;-70
2021/09/28 10:48:29;;;;;;;8.13;4.15;;;;;;;;;;4973774;28;20062;-70
2021/09/28 10:51:12;;;;;;;7.88;4.40;;;;;;;;;;4974145;28;20038;-71
2021/09/28 10:53:51;;;;;;;7.22;4.80;;;;;;;;;;4974068;28;20495;-70
2021/09/28 10:56:18;;;;;;;6.85;3.97;;;;;;;;;;4974424;28;20030;-70
2021/09/28 10:58:56;;;;;;;7.68;3.75;;;;;;;;;;4973765;28;20035;-70
2021/09/28 11:01:27;;;;;;;5.60;3.63;;;23.30;70.80;;;;;;4974266;28;20043;-70
2021/09/28 11:03:57;;;;;;;8.20;3.78;;;24.00;66.80;;;;;;4974130;28;20050;-74
2021/09/28 11:06:49;;;;;;;5.40;4.35;;;24.10;67.20;;;;;;4973145;28;20440;-73
2021/09/28 11:09:16;;;;;;;5.43;3.75;;;24.10;66.90;;;;;;4974005;28;20066;-71
2021/09/28 11:11:45;;;;;;;5.28;3.90;;;24.10;66.40;;;;;;4973893;28;20553;-70
2021/09/28 11:14:11;;;;;;;10.38;4.00;;;24.20;66.30;;;;;;4974138;28;20066;-71
2021/09/28 11:16:47;;;;;;;8.90;4.07;;;24.20;66.70;;;;;;4973970;28;20555;-71
2021/09/28 11:19:13;;;;;;;8.13;4.10;;;24.30;66.70;;;;;;4973813;28;20538;-72
2021/09/28 11:21:44;;;;;;;9.07;4.13;;;24.30;66.50;;;;;;4973889;28;20039;-70
2021/09/28 11:24:12;;;;;;;7.18;3.85;;;24.30;66.40;;;;;;4973648;28;20034;-74
2021/09/28 11:26:42;;;;;;;7.90;3.85;;;24.40;65.00;;;;;;4974185;28;20050;-70
2021/09/28 11:29:10;;;;;;;8.25;3.75;;;24.40;64.40;;;;;;4973901;28;20105;-70
2021/09/28 11:31:38;;;;;;;8.90;3.83;;;24.50;64.10;;;;;;4973632;28;20043;-71
2021/09/28 11:34:04;;;;;;;5.93;3.92;;;24.50;63.30;;;;;;4973980;28;20047;-70
2021/09/28 11:36:35;;;;;;;6.60;3.92;;;24.50;63.80;;;;;;4973895;28;20031;-70
2021/09/28 11:39:02;;;;;;;10.88;3.72;;;24.60;64.80;;;;;;4973663;28;20039;-70
2021/09/28 11:41:28;;;;;;;11.85;4.28;;;24.60;65.40;;;;;;4973994;28;20071;-70
2021/09/28 11:43:59;;;;;;;6.28;3.20;;;24.60;66.40;;;;;;4973599;28;20391;-70
2021/09/28 11:46:27;;;;;;;7.75;4.65;;;24.70;65.20;;;;;;4970708;28;20042;-69
2021/09/28 11:48:57;;;;;;;11.35;4.43;;;24.70;63.90;;;;;;4970924;28;20419;-71
2021/09/28 11:51:38;;;;;;;6.63;3.92;;;24.70;63.30;;;;;;4971776;28;20031;-72
2021/09/28 11:54:06;;;;;;;4.17;3.60;;;24.80;62.70;;;;;;4974334;28;20066;-70
2021/09/28 11:56:35;;;;;;;4.88;3.47;;;24.80;61.30;;;;;;4976617;28;20649;-71
2021/09/28 11:59:02;;;;;;;7.38;4.18;;;24.80;62.20;;;;;;4976622;28;20113;-70
2021/09/28 12:01:28;;;;;;;6.80;4.25;;;24.80;62.40;;;;;;4976906;28;20023;-71
2021/09/28 12:09:57;;;;;;;10.00;4.25;;;24.90;59.60;;;;;;4976755;28;20530;-73
2021/09/28 12:12:26;;;;;;;6.82;3.70;;;24.90;60.80;;;;;;4976619;28;20074;-72
2021/09/28 12:14:53;;;;;;;9.70;4.00;;;25.00;61.30;;;;;;4976161;28;20411;-71
2021/09/28 12:17:35;;;;;;;4.68;3.50;;;25.10;61.10;;;;;;4976651;28;20134;-74
2021/09/28 12:20:13;;;;;;;7.97;4.32;;;25.00;60.80;;;;;;4976183;28;20041;-71
2021/09/28 12:22:45;;;;;;;9.90;3.90;;;25.10;60.50;;;;;;4975904;28;20038;-71
2021/09/28 12:25:32;;;;;;;8.15;4.00;;;25.20;61.80;;;;;;4976143;28;20507;-72
2021/09/28 12:28:09;;;;;;;6.32;4.00;;;25.20;61.60;;;;;;4976487;28;20488;-71
2021/09/28 12:31:05;;;;;;;5.70;4.40;;;25.30;60.70;;;;;;4975934;28;20125;-76
2021/09/28 12:33:31;;;;;;;9.93;4.03;;;25.30;60.50;;;;;;4975679;28;20276;-69
2021/09/28 12:35:59;;;;;;;8.65;4.28;;;25.30;60.70;;;;;;4973713;28;20114;-70
2021/09/28 12:38:25;;;;;;;7.22;4.43;;;25.30;61.40;;;;;;4973070;28;20035;-71
2021/09/28 12:40:52;;;;;;;6.97;4.30;;;25.30;61.70;;;;;;4974754;28;20031;-71
2021/09/28 12:43:24;;;;;;;4.32;3.80;;;25.40;62.10;;;;;;4976230;28;20138;-71
2021/09/28 12:45:56;;;;;;;5.60;4.20;;;25.40;59.70;;;;;;4974001;28;20046;-69
2021/09/28 12:48:42;;;;;;;7.45;4.28;;;25.40;60.90;;;;;;4977705;28;20035;-72
2021/09/28 12:51:18;;;;;;;6.82;4.20;;;25.40;60.20;;;;;;4994158;28;20379;-71
2021/09/28 12:53:45;;;;;;;5.82;3.63;;;25.40;60.60;;;;;;4993528;28;20046;-71
2021/09/28 12:56:11;;;;;;;7.30;3.35;;;25.40;58.00;;;;;;4995457;28;20035;-71
2021/09/28 12:58:36;;;;;;;4.10;3.45;;;25.50;56.40;;;;;;4995434;28;20117;-72
2021/09/28 13:01:02;;;;;;;7.47;3.55;;;25.50;57.50;;;;;;4995453;28;20423;-71
2021/09/28 13:03:30;;;;;;;5.28;3.47;;;25.50;56.60;;;;;;4995305;28;20034;-72